Time;durP1;ratioP1;P1;durP2;ratioP2;P2;SDS_P1;SDS_P2;PMS_P1;PMS_P2;Temp;Humidity;BMP_temperature;BMP_pressure;BME280_temperature;BME280_humidity;BME280_pressure;Samples;Min_cycle;Max_cycle;Signal;HPM_P1;HPM_P2
2022/11/26 00:01:15;;;;;;;2.90;2.70;;;19.80;43.00;;;;;;4979091;28;20445;-62
2022/11/26 00:03:41;;;;;;;2.57;2.37;;;19.90;43.10;;;;;;4984595;28;20707;-61
2022/11/26 00:06:29;;;;;;;3.40;2.47;;;19.90;43.10;;;;;;4982392;28;20469;-61
2022/11/26 00:08:54;;;;;;;2.47;2.20;;;19.80;43.00;;;;;;4995889;28;20282;-63
2022/11/26 00:11:20;;;;;;;2.77;2.57;;;19.80;43.10;;;;;;4997981;28;20785;-62
2022/11/26 00:13:45;;;;;;;2.70;2.50;;;19.80;43.00;;;;;;4998359;28;20227;-62
2022/11/26 00:16:13;;;;;;;2.40;2.30;;;19.80;43.00;;;;;;4989429;28;20234;-61
2022/11/26 00:18:39;;;;;;;3.80;2.20;;;19.80;43.00;;;;;;4985273;28;20383;-61
2022/11/26 00:21:11;;;;;;;2.37;2.10;;;19.80;43.00;;;;;;4984677;28;20454;-61
2022/11/26 00:23:36;;;;;;;2.30;2.10;;;19.80;43.00;;;;;;4983223;28;20431;-62
2022/11/26 00:26:03;;;;;;;2.47;2.27;;;19.80;43.00;;;;;;4983749;28;20837;-62
2022/11/26 00:28:34;;;;;;;3.77;2.67;;;19.80;43.00;;;;;;4982082;28;20222;-63
2022/11/26 00:31:05;;;;;;;2.50;2.40;;;19.80;43.00;;;;;;4986238;28;20462;-61
2022/11/26 00:33:31;;;;;;;2.20;2.00;;;19.80;43.00;;;;;;4986138;28;20465;-61
2022/11/26 00:36:14;;;;;;;2.00;1.90;;;19.80;43.00;;;;;;5001831;28;20471;-61
2022/11/26 00:38:40;;;;;;;2.20;2.10;;;19.80;43.00;;;;;;4999399;28;20444;-63
2022/11/26 00:41:15;;;;;;;2.37;2.20;;;19.80;43.00;;;;;;4981532;28;20461;-62
2022/11/26 00:43:41;;;;;;;2.20;2.10;;;19.80;43.00;;;;;;4978645;28;20215;-63
2022/11/26 00:46:14;;;;;;;2.27;2.07;;;19.80;43.90;;;;;;4983842;28;20445;-61
2022/11/26 00:48:40;;;;;;;3.13;2.83;;;19.80;43.10;;;;;;4981961;28;20226;-62
2022/11/26 00:51:07;;;;;;;2.23;2.00;;;19.80;43.00;;;;;;4988652;28;20765;-62
2022/11/26 00:53:33;;;;;;;2.10;1.87;;;19.80;43.10;;;;;;4993204;28;20817;-61
2022/11/26 00:55:58;;;;;;;2.30;2.10;;;19.80;43.00;;;;;;4998492;28;20449;-64
2022/11/26 00:58:27;;;;;;;2.33;2.23;;;19.80;43.00;;;;;;5001142;28;20222;-61
2022/11/26 01:00:54;;;;;;;1.93;1.83;;;19.80;43.00;;;;;;4999202;28;20245;-62
2022/11/26 01:03:20;;;;;;;2.30;2.20;;;19.80;43.00;;;;;;4981730;28;20456;-62
2022/11/26 01:05:49;;;;;;;2.60;2.40;;;19.80;43.00;;;;;;4984951;28;20453;-62
2022/11/26 01:08:30;;;;;;;2.00;1.90;;;19.80;43.00;;;;;;4991417;28;20314;-61
2022/11/26 01:10:57;;;;;;;2.27;2.07;;;19.80;43.00;;;;;;4988405;28;20433;-61
2022/11/26 01:13:23;;;;;;;1.97;1.87;;;19.80;43.00;;;;;;4978467;28;20533;-62
2022/11/26 01:15:49;;;;;;;2.33;2.13;;;19.80;43.00;;;;;;4984425;28;20537;-61
2022/11/26 01:18:17;;;;;;;2.13;2.03;;;19.80;43.00;;;;;;4984483;28;20630;-61
2022/11/26 01:20:43;;;;;;;2.40;2.20;;;19.80;43.00;;;;;;4979522;28;20664;-62
2022/11/26 01:23:11;;;;;;;2.30;2.10;;;19.80;43.00;;;;;;4980888;28;20516;-62
2022/11/26 01:25:37;;;;;;;3.43;2.37;;;19.80;43.00;;;;;;4980555;28;20454;-62
2022/11/26 01:28:03;;;;;;;2.13;2.00;;;19.80;43.00;;;;;;4986019;28;20812;-62
2022/11/26 01:30:31;;;;;;;2.50;2.30;;;19.80;43.00;;;;;;4979107;28;20461;-62
2022/11/26 01:32:59;;;;;;;2.37;2.17;;;19.80;43.00;;;;;;4984952;28;20225;-62
2022/11/26 01:35:27;;;;;;;2.87;2.57;;;19.80;43.00;;;;;;4983186;28;20470;-61
2022/11/26 01:37:52;;;;;;;1.97;1.87;;;19.80;43.00;;;;;;4988911;28;20449;-61
2022/11/26 01:40:25;;;;;;;1.83;1.70;;;19.80;43.00;;;;;;4993633;28;20940;-61
2022/11/26 01:42:55;;;;;;;2.40;2.20;;;19.80;43.00;;;;;;4983404;28;20533;-61
2022/11/26 01:45:23;;;;;;;2.07;1.97;;;19.80;43.00;;;;;;4980315;28;20531;-61
2022/11/26 01:47:49;;;;;;;2.40;2.20;;;19.80;43.00;;;;;;4984983;28;20605;-62
2022/11/26 01:50:29;;;;;;;2.50;2.30;;;19.80;43.00;;;;;;4990206;28;20416;-62
2022/11/26 01:52:59;;;;;;;2.00;1.90;;;19.80;43.00;;;;;;4999473;28;20448;-62
2022/11/26 01:55:37;;;;;;;2.40;2.20;;;19.80;43.00;;;;;;4997490;28;20622;-63
2022/11/26 01:58:08;;;;;;;1.87;1.73;;;19.80;43.00;;;;;;5002702;28;20462;-61
2022/11/26 02:00:33;;;;;;;2.10;1.97;;;19.80;43.00;;;;;;5004672;28;20430;-63
2022/11/26 02:03:00;;;;;;;2.23;2.10;;;19.80;43.10;;;;;;5002253;28;20457;-62
2022/11/26 02:05:30;;;;;;;2.00;1.90;;;19.80;43.00;;;;;;5002367;28;20285;-61
2022/11/26 02:07:56;;;;;;;2.03;1.90;;;19.80;43.00;;;;;;5002322;28;20473;-62
2022/11/26 02:10:21;;;;;;;2.20;2.00;;;19.80;43.00;;;;;;5003359;28;20506;-62
2022/11/26 02:12:48;;;;;;;1.93;1.83;;;19.80;43.00;;;;;;4991637;28;20212;-62
2022/11/26 02:15:14;;;;;;;2.10;1.90;;;19.80;43.10;;;;;;5000317;28;20235;-62
2022/11/26 02:17:43;;;;;;;2.10;1.90;;;19.70;43.00;;;;;;5001440;28;20444;-62
2022/11/26 02:20:18;;;;;;;3.50;3.20;;;19.80;43.00;;;;;;4997324;28;20231;-61
2022/11/26 02:23:19;;;;;;;2.73;2.20;;;19.80;43.00;;;;;;5001825;28;20949;-61
2022/11/26 02:26:04;;;;;;;2.03;1.83;;;19.80;43.00;;;;;;5000550;28;20920;-62
2022/11/26 02:29:09;;;;;;;2.40;2.30;;;19.80;43.00;;;;;;4981696;28;20473;-62
2022/11/26 02:31:46;;;;;;;2.00;1.90;;;19.80;42.90;;;;;;4993434;28;20841;-62
2022/11/26 02:34:25;;;;;;;2.87;1.90;;;19.70;43.00;;;;;;4984870;28;20547;-61
2022/11/26 02:36:57;;;;;;;2.30;2.10;;;19.70;43.00;;;;;;4989242;28;20457;-61
2022/11/26 02:39:26;;;;;;;2.10;1.90;;;19.80;43.00;;;;;;4984984;28;20507;-62
2022/11/26 02:41:54;;;;;;;2.40;1.63;;;19.70;42.90;;;;;;4987257;28;20460;-62
2022/11/26 02:44:26;;;;;;;1.63;1.53;;;19.70;43.00;;;;;;4988805;28;20477;-62
2022/11/26 02:47:06;;;;;;;1.97;1.87;;;19.80;43.00;;;;;;4992792;28;20457;-63
2022/11/26 02:49:32;;;;;;;2.60;2.40;;;19.70;43.70;;;;;;4998046;28;21044;-63
2022/11/26 02:52:01;;;;;;;2.17;2.07;;;19.80;43.00;;;;;;5002224;28;20535;-61
2022/11/26 02:54:28;;;;;;;2.20;2.10;;;19.70;42.90;;;;;;4998774;28;20584;-62
2022/11/26 02:56:54;;;;;;;2.23;2.07;;;19.80;43.00;;;;;;4998926;28;20458;-62
2022/11/26 02:59:20;;;;;;;1.90;1.80;;;19.70;43.00;;;;;;5001451;28;20447;-61
2022/11/26 03:01:58;;;;;;;2.10;1.90;;;19.70;42.90;;;;;;4998562;28;20591;-61
2022/11/26 03:04:31;;;;;;;2.53;2.33;;;19.70;42.90;;;;;;4984974;28;20227;-61
2022/11/26 03:07:01;;;;;;;2.33;1.90;;;19.70;43.00;;;;;;4981848;28;20469;-62
2022/11/26 03:09:36;;;;;;;2.00;1.90;;;19.70;43.00;;;;;;4988584;28;20503;-62
2022/11/26 03:12:02;;;;;;;3.07;2.13;;;19.70;42.90;;;;;;4984120;28;20444;-61
2022/11/26 03:14:27;;;;;;;1.80;1.70;;;19.70;43.00;;;;;;4987585;28;20460;-61
2022/11/26 03:16:53;;;;;;;2.00;1.80;;;19.70;42.90;;;;;;4985250;28;20231;-61
2022/11/26 03:19:18;;;;;;;2.03;1.90;;;19.70;43.00;;;;;;4989925;28;20217;-62
2022/11/26 03:21:44;;;;;;;2.07;1.90;;;19.70;43.00;;;;;;4989079;28;20679;-61
2022/11/26 03:24:09;;;;;;;2.20;2.00;;;19.70;43.00;;;;;;5001807;28;20710;-63
2022/11/26 03:26:35;;;;;;;2.10;2.00;;;19.70;43.00;;;;;;4996771;28;20224;-63
2022/11/26 03:29:00;;;;;;;1.90;1.80;;;19.70;43.00;;;;;;4999701;28;20671;-61
2022/11/26 03:31:26;;;;;;;1.80;1.70;;;19.70;43.00;;;;;;4998959;28;20739;-61
2022/11/26 03:33:51;;;;;;;3.37;2.00;;;19.70;43.00;;;;;;5002312;28;20242;-64
2022/11/26 03:36:17;;;;;;;2.20;2.00;;;19.70;43.00;;;;;;5000687;28;20225;-62
2022/11/26 03:38:42;;;;;;;2.50;1.73;;;19.70;43.00;;;;;;4992217;28;20289;-62
2022/11/26 03:41:08;;;;;;;2.27;2.17;;;19.70;43.00;;;;;;4991722;28;20232;-61
2022/11/26 03:43:34;;;;;;;3.20;2.50;;;19.70;43.00;;;;;;4997785;28;20519;-61
2022/11/26 03:45:59;;;;;;;2.20;2.00;;;19.70;43.00;;;;;;4997929;28;20303;-61
2022/11/26 03:48:25;;;;;;;1.90;1.80;;;19.70;43.00;;;;;;4991301;28;20225;-61
2022/11/26 03:50:50;;;;;;;2.47;2.07;;;19.70;43.00;;;;;;4981374;28;20212;-61
2022/11/26 03:53:16;;;;;;;2.00;1.90;;;19.70;43.00;;;;;;4990710;28;20272;-62
2022/11/26 03:55:41;;;;;;;2.20;2.10;;;19.70;43.00;;;;;;4982005;28;20244;-61
2022/11/26 03:58:07;;;;;;;2.10;1.97;;;19.70;43.00;;;;;;4981508;28;20720;-61
2022/11/26 04:00:32;;;;;;;2.30;2.10;;;19.70;43.00;;;;;;4989475;28;20231;-61
2022/11/26 04:02:58;;;;;;;1.57;1.47;;;19.70;43.70;;;;;;4989075;28;20276;-61
2022/11/26 04:05:24;;;;;;;1.80;1.70;;;19.70;43.00;;;;;;4984322;28;20614;-61
2022/11/26 04:07:49;;;;;;;1.90;1.70;;;19.70;43.00;;;;;;4985178;28;20345;-61
2022/11/26 04:10:15;;;;;;;1.77;1.60;;;19.70;43.00;;;;;;4983533;28;20223;-61
2022/11/26 04:12:40;;;;;;;1.80;1.67;;;19.70;43.00;;;;;;4986672;28;20241;-61
2022/11/26 04:15:06;;;;;;;1.73;1.60;;;19.70;43.00;;;;;;4982945;28;20239;-61
2022/11/26 04:17:32;;;;;;;2.00;1.90;;;19.70;43.00;;;;;;4981752;28;20746;-62
2022/11/26 04:19:57;;;;;;;1.80;1.70;;;19.70;42.90;;;;;;4991378;28;20455;-62
2022/11/26 04:22:23;;;;;;;1.90;1.63;;;19.70;42.90;;;;;;4990730;28;20227;-62
2022/11/26 04:24:48;;;;;;;2.03;1.90;;;19.70;43.00;;;;;;4989557;28;20230;-62
2022/11/26 04:27:14;;;;;;;2.20;1.77;;;19.70;42.90;;;;;;4982381;28;20220;-62
2022/11/26 04:29:39;;;;;;;2.30;2.13;;;19.70;42.90;;;;;;4981692;28;20223;-61
2022/11/26 04:32:05;;;;;;;1.87;1.77;;;19.70;42.90;;;;;;4986449;28;20229;-61
2022/11/26 04:34:31;;;;;;;2.10;1.90;;;19.70;43.00;;;;;;4983011;28;20259;-61
2022/11/26 04:36:56;;;;;;;1.93;1.73;;;19.70;43.10;;;;;;4987376;28;20223;-61
2022/11/26 04:39:22;;;;;;;1.90;1.80;;;19.70;42.90;;;;;;4984201;28;20239;-60
2022/11/26 04:41:48;;;;;;;1.77;1.67;;;19.70;42.90;;;;;;4988434;28;20289;-63
2022/11/26 04:44:14;;;;;;;1.97;1.83;;;19.70;42.90;;;;;;4980362;28;20220;-61
2022/11/26 04:46:39;;;;;;;1.97;1.80;;;19.70;42.90;;;;;;4993599;28;20468;-62
2022/11/26 04:49:05;;;;;;;2.03;1.83;;;19.70;42.90;;;;;;5001579;28;20230;-61
2022/11/26 04:51:30;;;;;;;1.80;1.70;;;19.70;43.00;;;;;;5000882;28;20228;-64
2022/11/26 04:53:56;;;;;;;1.67;1.57;;;19.70;42.90;;;;;;4980866;28;20228;-61
2022/11/26 04:56:22;;;;;;;2.20;2.10;;;19.70;42.80;;;;;;4988291;28;20231;-60
2022/11/26 04:58:48;;;;;;;2.03;1.83;;;19.70;42.80;;;;;;4986786;28;20313;-63
2022/11/26 05:01:14;;;;;;;1.80;1.70;;;19.70;42.80;;;;;;4994823;28;20543;-62
2022/11/26 05:03:39;;;;;;;1.70;1.60;;;19.70;42.80;;;;;;4988265;28;20664;-61
2022/11/26 05:06:05;;;;;;;1.80;1.70;;;19.70;42.80;;;;;;4990384;28;21010;-60
2022/11/26 05:08:31;;;;;;;1.73;1.63;;;19.70;42.70;;;;;;4995852;28;20239;-61
2022/11/26 05:10:57;;;;;;;1.70;1.60;;;19.70;42.80;;;;;;5002239;28;20646;-61
2022/11/26 05:13:23;;;;;;;2.13;1.80;;;19.70;42.70;;;;;;4991127;28;20232;-61
2022/11/26 05:15:49;;;;;;;2.27;1.40;;;19.70;42.70;;;;;;4980847;28;21254;-62
2022/11/26 05:18:15;;;;;;;2.33;2.13;;;19.70;42.70;;;;;;4985873;28;20230;-61
2022/11/26 05:20:40;;;;;;;4.10;2.20;;;19.70;42.70;;;;;;4987251;28;20262;-61
2022/11/26 05:23:06;;;;;;;1.70;1.60;;;19.70;42.70;;;;;;4986378;28;20224;-62
2022/11/26 05:25:31;;;;;;;2.00;1.90;;;19.70;42.60;;;;;;4984168;28;20204;-62
2022/11/26 05:27:57;;;;;;;2.07;1.90;;;19.70;42.60;;;;;;4982712;28;20224;-60
2022/11/26 05:30:22;;;;;;;2.17;2.07;;;19.70;42.70;;;;;;4984298;28;20319;-62
2022/11/26 05:32:48;;;;;;;1.90;1.80;;;19.70;42.60;;;;;;4983330;28;20229;-62
2022/11/26 05:35:13;;;;;;;4.03;1.80;;;19.70;42.60;;;;;;4988945;28;20657;-60
2022/11/26 05:37:39;;;;;;;1.80;1.70;;;19.70;42.60;;;;;;4985047;28;20838;-61
2022/11/26 05:40:05;;;;;;;2.17;2.07;;;19.70;42.60;;;;;;4990674;28;20220;-60
2022/11/26 05:42:31;;;;;;;1.87;1.77;;;19.70;42.60;;;;;;4982219;28;20761;-61
2022/11/26 05:44:56;;;;;;;2.00;1.90;;;19.70;42.60;;;;;;4987325;28;20549;-61
2022/11/26 05:47:22;;;;;;;1.87;1.77;;;19.70;42.60;;;;;;4983457;28;21090;-61
2022/11/26 05:49:47;;;;;;;1.90;1.60;;;19.70;42.60;;;;;;4988471;28;20666;-62
2022/11/26 05:52:13;;;;;;;2.43;2.10;;;19.70;42.60;;;;;;4982673;28;20982;-62
2022/11/26 05:54:39;;;;;;;1.70;1.60;;;19.70;42.60;;;;;;5004614;28;20377;-61
2022/11/26 05:57:04;;;;;;;1.70;1.60;;;19.70;42.50;;;;;;5002819;28;20363;-62
2022/11/26 05:59:30;;;;;;;2.17;1.97;;;19.70;42.50;;;;;;4998501;28;20235;-62
2022/11/26 06:01:55;;;;;;;1.93;1.53;;;19.70;42.50;;;;;;4984753;28;20635;-62
2022/11/26 06:04:21;;;;;;;1.90;1.80;;;19.70;42.50;;;;;;4992059;28;20229;-61
2022/11/26 06:06:46;;;;;;;2.00;1.80;;;19.70;42.50;;;;;;4989240;28;20266;-61
2022/11/26 06:09:12;;;;;;;1.73;1.63;;;19.80;42.60;;;;;;4979295;28;20252;-62
2022/11/26 06:11:38;;;;;;;1.70;1.60;;;19.80;42.60;;;;;;4980761;28;20227;-63
2022/11/26 06:14:04;;;;;;;1.90;1.80;;;19.80;42.60;;;;;;4984918;28;20939;-63
2022/11/26 06:16:30;;;;;;;1.83;1.63;;;19.70;42.50;;;;;;4986760;28;20220;-63
2022/11/26 06:18:56;;;;;;;1.80;1.70;;;19.80;42.60;;;;;;4979412;28;20228;-62
2022/11/26 06:21:21;;;;;;;2.00;1.90;;;19.80;42.50;;;;;;4997803;28;20228;-62
2022/11/26 06:23:47;;;;;;;2.13;2.00;;;19.80;42.60;;;;;;4990600;28;20225;-62
2022/11/26 06:26:12;;;;;;;1.93;1.83;;;19.80;42.60;;;;;;4986875;28;20655;-61
2022/11/26 06:28:38;;;;;;;1.90;1.80;;;19.80;42.50;;;;;;4984389;28;20266;-63
2022/11/26 06:31:04;;;;;;;1.90;1.80;;;19.80;42.50;;;;;;4987338;28;20338;-61
2022/11/26 06:33:30;;;;;;;2.27;2.17;;;19.80;42.50;;;;;;4988571;28;20675;-64
2022/11/26 06:36:00;;;;;;;1.70;1.60;;;19.80;43.20;;;;;;4986154;28;20283;-61
2022/11/26 06:38:26;;;;;;;1.80;1.70;;;19.80;42.50;;;;;;4986158;28;20457;-61
2022/11/26 06:41:03;;;;;;;2.17;1.97;;;19.80;42.50;;;;;;4977790;28;20429;-61
2022/11/26 06:43:29;;;;;;;1.87;1.77;;;19.80;42.40;;;;;;4997880;28;20231;-61
2022/11/26 06:46:01;;;;;;;2.60;1.87;;;19.80;42.40;;;;;;4997671;28;20510;-62
2022/11/26 06:48:26;;;;;;;1.90;1.80;;;19.80;42.30;;;;;;4998192;28;20228;-61
2022/11/26 06:50:52;;;;;;;1.90;1.80;;;19.80;42.40;;;;;;4996587;28;20750;-64
2022/11/26 06:53:18;;;;;;;1.70;1.60;;;19.80;42.50;;;;;;4997782;28;20219;-63
2022/11/26 06:55:43;;;;;;;2.00;1.90;;;19.80;42.30;;;;;;4997452;28;20244;-62
2022/11/26 06:58:09;;;;;;;1.80;1.70;;;19.80;42.30;;;;;;4978028;28;20473;-65
2022/11/26 07:00:34;;;;;;;2.13;2.00;;;19.80;42.30;;;;;;4988053;28;20211;-61
2022/11/26 07:03:00;;;;;;;1.50;1.40;;;19.80;42.30;;;;;;4999228;28;20370;-63
2022/11/26 07:05:26;;;;;;;1.50;1.40;;;19.80;42.30;;;;;;4997793;28;21168;-63
2022/11/26 07:07:51;;;;;;;2.10;2.00;;;19.80;42.30;;;;;;4980428;28;20236;-62
2022/11/26 07:10:17;;;;;;;1.80;1.70;;;19.80;42.30;;;;;;4982022;28;20597;-62
2022/11/26 07:12:42;;;;;;;2.03;1.77;;;19.80;42.30;;;;;;4985595;28;20233;-61
2022/11/26 07:15:08;;;;;;;2.37;2.00;;;19.80;42.30;;;;;;4986404;28;20244;-62
2022/11/26 07:17:34;;;;;;;1.80;1.70;;;19.80;42.30;;;;;;4979401;28;20243;-62
2022/11/26 07:19:59;;;;;;;2.03;1.93;;;19.80;42.30;;;;;;4984545;28;20462;-62
2022/11/26 07:22:25;;;;;;;2.37;2.20;;;19.80;42.30;;;;;;4977325;28;20731;-61
2022/11/26 07:24:50;;;;;;;1.87;1.77;;;19.80;42.30;;;;;;4984070;28;20228;-61
2022/11/26 07:27:16;;;;;;;1.90;1.80;;;19.80;42.30;;;;;;4988631;28;20215;-62
2022/11/26 07:29:41;;;;;;;2.00;1.90;;;19.80;42.20;;;;;;5000642;28;20220;-62
2022/11/26 07:32:07;;;;;;;1.90;1.80;;;19.80;42.30;;;;;;5001645;28;20200;-65
2022/11/26 07:34:32;;;;;;;1.70;1.60;;;19.80;42.20;;;;;;5016582;28;20242;-61
2022/11/26 07:36:59;;;;;;;1.70;1.60;;;19.80;42.20;;;;;;4999339;28;20216;-63
2022/11/26 07:39:24;;;;;;;1.67;1.57;;;19.80;42.40;;;;;;4990513;28;20226;-62
2022/11/26 07:41:50;;;;;;;2.10;1.93;;;19.80;42.30;;;;;;4981892;28;20453;-62
2022/11/26 07:44:15;;;;;;;1.70;1.60;;;19.80;43.00;;;;;;5004267;28;20314;-63
2022/11/26 07:46:41;;;;;;;1.90;1.80;;;19.80;42.20;;;;;;5001153;28;20223;-61
2022/11/26 07:49:07;;;;;;;2.10;2.00;;;19.80;42.20;;;;;;4998225;28;20281;-61
2022/11/26 07:51:35;;;;;;;1.80;1.70;;;19.80;42.20;;;;;;4986837;28;20224;-64
2022/11/26 07:54:04;;;;;;;2.07;1.93;;;19.80;42.20;;;;;;4994467;28;20751;-63
2022/11/26 07:56:30;;;;;;;2.53;2.00;;;19.80;42.20;;;;;;4997398;28;20806;-65
2022/11/26 07:58:56;;;;;;;1.97;1.87;;;19.80;42.30;;;;;;4984384;28;20457;-63
2022/11/26 08:01:25;;;;;;;1.90;1.80;;;19.80;42.20;;;;;;4991652;28;20443;-66
2022/11/26 08:03:51;;;;;;;1.97;1.87;;;19.80;42.20;;;;;;4979902;28;20219;-63
2022/11/26 08:06:19;;;;;;;1.90;1.80;;;19.80;42.20;;;;;;4980413;28;20757;-65
2022/11/26 08:08:45;;;;;;;1.73;1.63;;;19.80;42.20;;;;;;4992229;28;20300;-64
2022/11/26 08:11:14;;;;;;;1.83;1.73;;;19.80;42.20;;;;;;4996023;28;20457;-64
2022/11/26 08:13:40;;;;;;;2.10;2.00;;;19.80;42.20;;;;;;5000502;28;20528;-66
2022/11/26 08:16:06;;;;;;;1.70;1.60;;;19.80;42.20;;;;;;4981090;28;20521;-63
2022/11/26 08:18:31;;;;;;;1.90;1.80;;;19.80;42.10;;;;;;4995707;28;20461;-64
2022/11/26 08:20:57;;;;;;;2.20;2.00;;;19.80;42.20;;;;;;4998691;28;21169;-64
2022/11/26 08:23:24;;;;;;;1.70;1.60;;;19.80;42.20;;;;;;4989717;28;20259;-64
2022/11/26 08:25:50;;;;;;;2.47;2.10;;;19.80;42.10;;;;;;4989719;28;20540;-65
2022/11/26 08:28:17;;;;;;;1.93;1.83;;;19.80;42.20;;;;;;4986293;28;20441;-64
2022/11/26 08:30:42;;;;;;;2.00;1.90;;;19.80;42.20;;;;;;4985606;28;20554;-63
2022/11/26 08:33:08;;;;;;;2.13;2.03;;;19.80;42.20;;;;;;4980700;28;20501;-63
2022/11/26 08:35:36;;;;;;;2.90;1.97;;;19.80;42.20;;;;;;4998768;28;20237;-61
2022/11/26 08:38:02;;;;;;;1.73;1.63;;;19.80;42.20;;;;;;4980637;28;20215;-62
2022/11/26 08:40:28;;;;;;;2.00;1.87;;;19.80;42.20;;;;;;4991473;28;20473;-62
2022/11/26 08:42:54;;;;;;;1.93;1.73;;;19.80;42.30;;;;;;4987018;28;20277;-62
2022/11/26 08:45:19;;;;;;;2.10;2.00;;;19.80;42.20;;;;;;4990147;28;20675;-60
2022/11/26 08:47:45;;;;;;;1.77;1.67;;;19.80;42.30;;;;;;5000423;28;20273;-60
2022/11/26 08:50:10;;;;;;;1.70;1.60;;;19.80;42.20;;;;;;4998177;28;20349;-59
2022/11/26 08:52:36;;;;;;;2.00;1.90;;;19.80;42.20;;;;;;5000996;28;20227;-59
2022/11/26 08:55:02;;;;;;;2.30;2.10;;;19.80;42.20;;;;;;5000245;28;20231;-60
2022/11/26 08:57:27;;;;;;;2.60;1.80;;;19.80;42.20;;;;;;4985438;28;20207;-60
2022/11/26 08:59:54;;;;;;;1.80;1.70;;;19.80;42.20;;;;;;4982722;28;20211;-59
2022/11/26 09:02:21;;;;;;;1.83;1.73;;;19.80;42.20;;;;;;4981597;28;20282;-61
2022/11/26 09:04:47;;;;;;;2.50;2.07;;;19.80;42.30;;;;;;4987784;28;20521;-62
2022/11/26 09:07:12;;;;;;;2.03;1.93;;;19.80;42.20;;;;;;4982087;28;20543;-62
2022/11/26 09:09:38;;;;;;;1.90;1.80;;;19.80;42.30;;;;;;4989215;28;20262;-62
2022/11/26 09:12:03;;;;;;;2.30;2.10;;;19.80;42.20;;;;;;4994739;28;20777;-62
2022/11/26 09:14:34;;;;;;;2.37;2.27;;;19.80;42.20;;;;;;4988666;28;20234;-62
2022/11/26 09:17:00;;;;;;;2.10;1.90;;;19.80;42.20;;;;;;4988190;28;20277;-62
2022/11/26 09:19:27;;;;;;;1.87;1.77;;;19.80;42.20;;;;;;4995489;28;20783;-62
2022/11/26 09:21:52;;;;;;;2.00;1.70;;;19.80;42.20;;;;;;4986934;28;20362;-62
2022/11/26 09:24:18;;;;;;;3.07;1.87;;;19.80;42.20;;;;;;4985912;28;20509;-62
2022/11/26 09:26:44;;;;;;;1.87;1.77;;;19.80;42.20;;;;;;4998937;28;20369;-62
2022/11/26 09:29:15;;;;;;;2.10;2.00;;;19.80;42.20;;;;;;4991490;28;20446;-62
2022/11/26 09:31:42;;;;;;;2.20;1.93;;;19.80;43.00;;;;;;4986692;28;20552;-63
2022/11/26 09:34:08;;;;;;;1.90;1.80;;;19.80;42.20;;;;;;4988651;28;21754;-63
2022/11/26 09:36:34;;;;;;;2.30;2.10;;;19.80;42.30;;;;;;4982697;28;20529;-64
2022/11/26 09:39:00;;;;;;;1.97;1.87;;;19.80;42.20;;;;;;4987310;28;20460;-63
2022/11/26 09:41:39;;;;;;;1.80;1.70;;;19.80;42.30;;;;;;4987758;28;20212;-62
2022/11/26 09:44:32;;;;;;;2.10;1.80;;;19.80;42.20;;;;;;4984010;28;20670;-62
2022/11/26 09:47:18;;;;;;;2.00;1.90;;;19.80;42.30;;;;;;4988956;28;20514;-62
2022/11/26 09:50:00;;;;;;;1.97;1.87;;;19.80;42.30;;;;;;4988513;28;20624;-62
2022/11/26 09:52:32;;;;;;;2.00;1.90;;;19.80;42.20;;;;;;4985592;28;20497;-63
2022/11/26 09:55:21;;;;;;;1.90;1.70;;;19.80;42.30;;;;;;4979815;28;20462;-63
2022/11/26 09:58:13;;;;;;;2.30;1.70;;;19.80;42.30;;;;;;4988669;28;20838;-63
2022/11/26 10:00:43;;;;;;;2.00;1.90;;;19.80;42.30;;;;;;4986976;28;20464;-63
2022/11/26 10:03:44;;;;;;;2.03;1.93;;;19.80;42.30;;;;;;4980666;28;21355;-62
2022/11/26 10:06:23;;;;;;;2.20;1.73;;;19.80;42.30;;;;;;4954498;28;20421;-62
2022/11/26 10:09:34;;;;;;;2.00;1.90;;;19.80;42.30;;;;;;4995362;28;20476;-63
2022/11/26 10:12:14;;;;;;;1.83;1.73;;;19.80;42.30;;;;;;5001767;28;20515;-63
2022/11/26 10:14:39;;;;;;;2.00;1.90;;;19.80;42.30;;;;;;5004133;28;21123;-63
2022/11/26 10:17:14;;;;;;;2.20;2.00;;;19.80;42.30;;;;;;5000606;28;20516;-64
2022/11/26 10:20:03;;;;;;;1.80;1.70;;;19.80;42.30;;;;;;5001123;28;20219;-63
2022/11/26 10:22:32;;;;;;;1.73;1.63;;;19.80;42.30;;;;;;4986103;28;20898;-63
2022/11/26 10:25:00;;;;;;;2.30;2.17;;;19.80;42.30;;;;;;4988504;28;20495;-63
2022/11/26 10:27:31;;;;;;;1.80;1.60;;;19.80;42.30;;;;;;4998976;28;20467;-62
2022/11/26 10:30:16;;;;;;;1.80;1.70;;;19.80;42.20;;;;;;4994871;28;20446;-62
2022/11/26 10:32:44;;;;;;;2.33;1.67;;;19.80;42.30;;;;;;5000134;28;20493;-64
2022/11/26 10:35:15;;;;;;;1.90;1.80;;;19.80;42.30;;;;;;5003103;28;20496;-63
2022/11/26 10:37:41;;;;;;;1.80;1.70;;;19.90;42.40;;;;;;4997029;28;20446;-62
2022/11/26 10:40:28;;;;;;;1.93;1.83;;;19.80;42.30;;;;;;5000489;28;20565;-62
2022/11/26 10:43:17;;;;;;;1.80;1.70;;;19.90;42.40;;;;;;4986801;28;20617;-62
2022/11/26 10:45:52;;;;;;;2.00;1.90;;;19.90;42.30;;;;;;4992492;28;20809;-62
2022/11/26 10:48:28;;;;;;;1.80;1.70;;;19.90;42.40;;;;;;4995931;28;20494;-63
2022/11/26 10:50:56;;;;;;;2.10;2.00;;;19.80;42.30;;;;;;4990647;28;20443;-64
2022/11/26 10:53:24;;;;;;;6.57;1.83;;;19.90;42.50;;;;;;5002435;28;20965;-63
2022/11/26 10:55:52;;;;;;;1.60;1.50;;;19.80;42.30;;;;;;5001725;28;20436;-63
2022/11/26 10:58:24;;;;;;;1.93;1.83;;;19.90;42.40;;;;;;5001532;28;20772;-64
2022/11/26 11:00:49;;;;;;;1.90;1.80;;;19.80;42.30;;;;;;4996881;28;20520;-64
2022/11/26 11:03:21;;;;;;;2.43;2.00;;;19.80;42.30;;;;;;4985251;28;20541;-63
2022/11/26 11:05:46;;;;;;;1.90;1.80;;;19.90;42.40;;;;;;4995068;28;20228;-63
2022/11/26 11:08:33;;;;;;;1.87;1.60;;;19.80;42.30;;;;;;4983287;28;20559;-63
2022/11/26 11:11:02;;;;;;;1.90;1.80;;;19.90;42.40;;;;;;4996030;28;20690;-63
2022/11/26 11:13:47;;;;;;;2.20;2.00;;;19.80;42.30;;;;;;4998505;28;20450;-63
2022/11/26 11:16:18;;;;;;;1.93;1.83;;;19.80;42.30;;;;;;5001705;28;20963;-63
2022/11/26 11:18:52;;;;;;;2.23;1.90;;;19.90;42.50;;;;;;5000497;28;20525;-64
2022/11/26 11:21:20;;;;;;;2.30;2.10;;;19.90;42.50;;;;;;4984213;28;20589;-64
2022/11/26 11:23:46;;;;;;;2.00;1.90;;;19.90;42.50;;;;;;4983451;28;20449;-63
2022/11/26 11:26:19;;;;;;;1.70;1.60;;;19.90;42.50;;;;;;4988954;28;20445;-64
2022/11/26 11:28:50;;;;;;;2.10;2.00;;;19.90;42.50;;;;;;5000369;28;20440;-62
2022/11/26 11:31:19;;;;;;;2.23;2.03;;;19.90;42.50;;;;;;4989810;28;20465;-64
2022/11/26 11:33:46;;;;;;;2.40;2.20;;;19.80;42.40;;;;;;4984694;28;20476;-63
2022/11/26 11:36:17;;;;;;;3.03;2.37;;;19.80;42.30;;;;;;4992790;28;20458;-63
2022/11/26 11:38:51;;;;;;;1.90;1.80;;;19.80;42.40;;;;;;4994461;28;20457;-63
2022/11/26 11:41:34;;;;;;;1.97;1.73;;;19.80;42.30;;;;;;4988183;28;20417;-63
2022/11/26 11:44:12;;;;;;;1.97;1.83;;;19.80;42.30;;;;;;4981431;28;20485;-62
2022/11/26 11:46:40;;;;;;;2.33;1.80;;;19.80;42.30;;;;;;4985742;28;20535;-63
2022/11/26 11:49:42;;;;;;;1.73;1.63;;;19.80;42.40;;;;;;4983883;28;20461;-63
2022/11/26 11:52:27;;;;;;;1.90;1.80;;;19.80;42.40;;;;;;4984480;28;21008;-63
2022/11/26 11:55:04;;;;;;;1.97;1.87;;;19.80;42.40;;;;;;4979910;28;20437;-63
2022/11/26 11:57:53;;;;;;;2.90;1.77;;;19.80;42.40;;;;;;4985527;28;20813;-63
2022/11/26 12:00:23;;;;;;;2.03;1.93;;;19.80;42.50;;;;;;5000329;28;20519;-65
2022/11/26 12:03:03;;;;;;;2.10;2.00;;;19.80;42.50;;;;;;4999962;28;20470;-63
2022/11/26 12:06:14;;;;;;;1.60;1.50;;;19.80;42.50;;;;;;4994350;28;20467;-64
2022/11/26 12:08:52;;;;;;;2.00;1.80;;;19.80;42.50;;;;;;4948539;28;20491;-62
2022/11/26 12:11:43;;;;;;;1.90;1.80;;;19.80;42.50;;;;;;4983984;28;20801;-64
2022/11/26 12:14:22;;;;;;;1.97;1.87;;;19.80;42.50;;;;;;4982710;28;20460;-63
2022/11/26 12:16:51;;;;;;;1.90;1.80;;;19.80;42.50;;;;;;4992450;28;20466;-62
2022/11/26 12:19:43;;;;;;;1.97;1.87;;;19.80;42.50;;;;;;4981298;28;20487;-63
2022/11/26 12:22:15;;;;;;;2.07;1.87;;;19.80;42.50;;;;;;4991855;28;20457;-64
2022/11/26 12:25:28;;;;;;;2.43;1.80;;;19.80;42.50;;;;;;4995269;28;20501;-63
2022/11/26 12:28:09;;;;;;;1.80;1.70;;;19.80;42.50;;;;;;4974913;28;20539;-62
2022/11/26 12:31:00;;;;;;;1.80;1.70;;;19.80;42.50;;;;;;4987011;28;20468;-62
2022/11/26 12:33:40;;;;;;;1.90;1.80;;;19.80;42.50;;;;;;4983016;28;20923;-61
2022/11/26 12:36:20;;;;;;;1.80;1.70;;;19.80;42.50;;;;;;4985131;28;20477;-62
2022/11/26 12:38:57;;;;;;;2.00;1.77;;;19.80;42.50;;;;;;4992311;28;20484;-65
2022/11/26 12:41:47;;;;;;;1.87;1.77;;;19.80;42.50;;;;;;4989676;28;20522;-63
2022/11/26 12:44:26;;;;;;;1.90;1.80;;;19.80;42.50;;;;;;4991656;28;20457;-63
2022/11/26 12:47:26;;;;;;;1.83;1.73;;;19.80;42.50;;;;;;4986406;28;20884;-60
2022/11/26 12:50:00;;;;;;;1.87;1.77;;;19.80;42.50;;;;;;4994199;28;21109;-61
2022/11/26 12:52:46;;;;;;;2.13;1.93;;;19.80;42.60;;;;;;4979453;28;20444;-60
2022/11/26 12:55:29;;;;;;;2.53;1.50;;;19.80;42.50;;;;;;4982121;28;20508;-60
2022/11/26 12:58:01;;;;;;;2.20;2.10;;;19.80;42.50;;;;;;4984617;28;20453;-61
2022/11/26 13:00:30;;;;;;;1.80;1.70;;;19.80;42.50;;;;;;5000610;28;20540;-61
2022/11/26 13:02:56;;;;;;;1.80;1.70;;;19.80;42.50;;;;;;4996270;28;20455;-61